Time;durP1;ratioP1;P1;durP2;ratioP2;P2;SDS_P1;SDS_P2;PMS_P1;PMS_P2;Temp;Humidity;BMP_temperature;BMP_pressure;BME280_temperature;BME280_humidity;BME280_pressure;Samples;Min_cycle;Max_cycle;Signal;HPM_P1;HPM_P2
2022/09/30 00:01:38;;;;;;;36.88;24.83;;;10.50;99.90;;;;;;5022133;28;20096;-73
2022/09/30 00:04:04;;;;;;;35.85;23.00;;;10.50;99.90;;;;;;5027365;28;20524;-73
2022/09/30 00:06:33;;;;;;;30.25;20.15;;;10.50;99.90;;;;;;5024340;28;20070;-72
2022/09/30 00:09:00;;;;;;;29.52;20.25;;;10.50;99.90;;;;;;5028115;28;20378;-73
2022/09/30 00:11:28;;;;;;;24.95;17.42;;;10.50;99.90;;;;;;5031160;28;20377;-73
2022/09/30 00:13:54;;;;;;;26.25;16.88;;;10.40;99.90;;;;;;5023263;28;20036;-73
2022/09/30 00:16:22;;;;;;;23.92;16.65;;;10.40;99.90;;;;;;5025314;28;20033;-73
2022/09/30 00:18:49;;;;;;;22.15;15.75;;;10.40;99.90;;;;;;5027925;28;20034;-72
2022/09/30 00:21:15;;;;;;;20.33;14.23;;;10.30;99.90;;;;;;5023639;28;20076;-72
2022/09/30 00:23:42;;;;;;;25.70;14.95;;;10.30;99.90;;;;;;5025625;28;20459;-73
2022/09/30 00:26:12;;;;;;;19.48;13.70;;;10.40;99.90;;;;;;5023361;28;20398;-73
2022/09/30 00:28:39;;;;;;;24.65;17.52;;;10.40;99.90;;;;;;5029904;28;20513;-73
2022/09/30 00:31:08;;;;;;;27.23;18.48;;;10.40;99.90;;;;;;5027528;28;20028;-73
2022/09/30 00:33:34;;;;;;;29.90;19.17;;;10.30;99.90;;;;;;5030920;28;20075;-73
2022/09/30 00:36:01;;;;;;;28.58;17.55;;;10.30;99.90;;;;;;5026221;28;20040;-73
2022/09/30 00:38:27;;;;;;;25.55;16.40;;;10.30;99.90;;;;;;5032182;28;20113;-73
2022/09/30 00:40:53;;;;;;;26.70;15.18;;;10.20;99.90;;;;;;5022321;28;20116;-72
2022/09/30 00:43:41;;;;;;;26.80;18.20;;;10.20;99.90;;;;;;5022257;28;20049;-73
2022/09/30 00:46:19;;;;;;;27.45;16.27;;;10.10;99.90;;;;;;5026276;28;20046;-72
2022/09/30 00:48:49;;;;;;;22.63;14.90;;;10.10;99.90;;;;;;5025195;28;20044;-72
2022/09/30 00:51:16;;;;;;;22.00;16.17;;;10.10;99.90;;;;;;5021670;28;20030;-72
2022/09/30 00:53:55;;;;;;;25.30;17.20;;;10.10;99.90;;;;;;5018671;28;20112;-73
2022/09/30 00:56:25;;;;;;;24.65;16.58;;;10.00;99.90;;;;;;5027135;28;20481;-73
2022/09/30 00:59:12;;;;;;;25.65;17.38;;;10.00;99.90;;;;;;5026961;28;20038;-72
2022/09/30 01:01:39;;;;;;;20.65;14.68;;;10.00;99.90;;;;;;5031670;28;20017;-73
2022/09/30 01:04:16;;;;;;;20.98;13.70;;;9.90;99.90;;;;;;5023207;28;20022;-73
2022/09/30 01:06:42;;;;;;;16.40;13.52;;;9.90;99.90;;;;;;5024463;28;20014;-73
2022/09/30 01:09:09;;;;;;;16.13;11.98;;;9.90;99.90;;;;;;5021888;28;20103;-73
2022/09/30 01:11:35;;;;;;;14.77;11.55;;;9.90;99.90;;;;;;5022963;28;20029;-73
2022/09/30 01:14:08;;;;;;;16.80;11.13;;;9.90;99.90;;;;;;5023567;28;20040;-73
2022/09/30 01:16:51;;;;;;;15.68;12.23;;;9.90;99.90;;;;;;5026359;28;20029;-73
2022/09/30 01:19:34;;;;;;;14.30;11.02;;;9.90;99.90;;;;;;5029686;28;20113;-73
2022/09/30 01:22:30;;;;;;;21.63;12.68;;;9.90;99.90;;;;;;5028850;28;20394;-73
2022/09/30 01:25:17;;;;;;;14.13;11.02;;;9.80;99.90;;;;;;5021853;28;20103;-73
2022/09/30 01:28:28;;;;;;;21.65;13.00;;;9.80;99.90;;;;;;5023618;28;20033;-73
2022/09/30 01:31:17;;;;;;;17.80;12.63;;;9.80;99.90;;;;;;5018661;28;20665;-72
2022/09/30 01:34:18;;;;;;;17.05;12.40;;;9.70;99.90;;;;;;5027804;28;20494;-72
2022/09/30 01:37:19;;;;;;;21.88;13.27;;;9.70;99.90;;;;;;5029729;28;20042;-73
2022/09/30 01:39:59;;;;;;;15.02;11.40;;;9.70;99.90;;;;;;5025608;28;20044;-72
2022/09/30 01:42:48;;;;;;;15.65;10.85;;;9.70;99.90;;;;;;5023280;28;20030;-72
2022/09/30 01:45:20;;;;;;;23.08;11.30;;;9.70;99.90;;;;;;5026919;28;20549;-72
2022/09/30 01:48:10;;;;;;;14.23;11.07;;;9.70;99.90;;;;;;5026912;28;20037;-73
2022/09/30 01:51:04;;;;;;;18.23;11.38;;;9.70;99.90;;;;;;5030879;28;20021;-72
2022/09/30 01:53:40;;;;;;;18.27;11.98;;;9.70;99.90;;;;;;5022396;28;20034;-73
2022/09/30 01:56:14;;;;;;;18.65;11.98;;;9.70;99.90;;;;;;5026784;28;20029;-73
2022/09/30 01:58:52;;;;;;;19.33;12.48;;;9.70;99.90;;;;;;5042973;28;20538;-73
2022/09/30 02:01:31;;;;;;;17.17;13.88;;;9.70;99.90;;;;;;5030742;28;20025;-72
2022/09/30 02:04:01;;;;;;;15.80;12.65;;;9.60;99.90;;;;;;5024210;28;20033;-73
2022/09/30 02:06:39;;;;;;;20.17;12.52;;;9.60;99.90;;;;;;5031158;28;20025;-72
2022/09/30 02:09:15;;;;;;;19.30;13.77;;;9.60;99.90;;;;;;5027655;28;20375;-72
2022/09/30 02:11:41;;;;;;;17.83;13.20;;;9.50;99.90;;;;;;5029820;28;20066;-72
2022/09/30 02:14:26;;;;;;;18.63;14.27;;;9.50;99.90;;;;;;5024958;28;20502;-72
2022/09/30 02:17:01;;;;;;;23.50;13.65;;;9.50;99.90;;;;;;5031849;28;20029;-73
2022/09/30 02:19:36;;;;;;;18.42;13.75;;;9.40;99.90;;;;;;5019406;28;20040;-73
2022/09/30 02:22:13;;;;;;;18.02;13.40;;;9.40;99.90;;;;;;5026995;28;20030;-73
2022/09/30 02:24:42;;;;;;;18.67;13.38;;;9.30;99.90;;;;;;5027407;28;22127;-73
2022/09/30 02:27:22;;;;;;;19.02;13.57;;;9.30;99.90;;;;;;5025975;28;20022;-72
2022/09/30 02:29:53;;;;;;;17.27;14.10;;;9.30;99.90;;;;;;5026807;28;20088;-73
2022/09/30 02:32:30;;;;;;;18.05;13.75;;;9.20;99.90;;;;;;5027803;28;20021;-72
2022/09/30 02:35:01;;;;;;;21.70;14.50;;;9.20;99.90;;;;;;5026875;28;20040;-72
2022/09/30 02:37:35;;;;;;;17.48;13.82;;;9.20;99.90;;;;;;5029012;28;20116;-72
2022/09/30 02:40:21;;;;;;;17.58;14.10;;;9.20;99.90;;;;;;5025264;28;20497;-72
2022/09/30 02:42:48;;;;;;;19.23;14.10;;;9.20;99.90;;;;;;5026283;28;20030;-72
2022/09/30 02:45:17;;;;;;;22.95;14.60;;;9.20;99.90;;;;;;5034713;28;20037;-72
2022/09/30 02:47:55;;;;;;;19.23;14.18;;;9.20;99.90;;;;;;5031566;28;20477;-72
2022/09/30 02:50:35;;;;;;;24.30;14.02;;;9.10;99.90;;;;;;5026467;28;20100;-72
2022/09/30 02:53:06;;;;;;;19.83;14.25;;;9.10;99.90;;;;;;5029406;28;20057;-73
2022/09/30 02:55:52;;;;;;;21.63;15.57;;;9.10;99.90;;;;;;5023260;28;20080;-73
2022/09/30 02:58:20;;;;;;;25.83;15.70;;;9.10;99.90;;;;;;5024397;28;20042;-72
2022/09/30 03:00:47;;;;;;;17.52;14.18;;;9.10;99.90;;;;;;5027792;28;20096;-72
2022/09/30 03:03:19;;;;;;;18.35;15.07;;;9.10;99.90;;;;;;5022990;28;20021;-72
2022/09/30 03:05:45;;;;;;;20.00;15.43;;;9.10;99.90;;;;;;5028429;28;20420;-72
2022/09/30 03:08:11;;;;;;;23.85;16.67;;;9.10;99.90;;;;;;5024294;28;20025;-72
2022/09/30 03:10:38;;;;;;;24.67;17.55;;;9.10;99.90;;;;;;5024268;28;20030;-72
2022/09/30 03:13:14;;;;;;;19.88;16.10;;;9.10;99.90;;;;;;5031328;28;20482;-72
2022/09/30 03:15:52;;;;;;;22.92;17.15;;;9.00;99.90;;;;;;5028307;28;20029;-72
2022/09/30 03:18:29;;;;;;;22.48;16.25;;;9.10;99.90;;;;;;5023133;28;20033;-72
2022/09/30 03:21:18;;;;;;;19.08;14.68;;;9.10;99.90;;;;;;5028561;28;20032;-73
2022/09/30 03:23:44;;;;;;;23.23;15.52;;;9.00;99.90;;;;;;5025048;28;20505;-72
2022/09/30 03:26:32;;;;;;;19.42;15.30;;;9.10;99.90;;;;;;5034221;28;20053;-72
2022/09/30 03:28:57;;;;;;;19.33;15.30;;;9.00;99.90;;;;;;5022393;28;20501;-72
2022/09/30 03:31:29;;;;;;;22.25;16.42;;;9.00;99.90;;;;;;5026974;28;20022;-72
2022/09/30 03:34:04;;;;;;;24.13;16.85;;;9.00;99.90;;;;;;5031186;28;20025;-72
2022/09/30 03:36:38;;;;;;;25.85;17.05;;;9.00;99.90;;;;;;5033794;28;20025;-72
2022/09/30 03:39:12;;;;;;;21.65;16.90;;;9.00;99.90;;;;;;5033776;28;20037;-72
2022/09/30 03:41:51;;;;;;;23.08;16.67;;;9.00;99.90;;;;;;5029740;28;20064;-72
2022/09/30 03:44:23;;;;;;;22.70;16.70;;;8.90;99.90;;;;;;5032762;28;20034;-72
2022/09/30 03:46:52;;;;;;;25.90;18.77;;;8.90;99.90;;;;;;5029137;28;20025;-72
2022/09/30 03:49:23;;;;;;;27.42;20.60;;;8.90;99.90;;;;;;5024526;28;20024;-72
2022/09/30 03:51:48;;;;;;;23.20;15.15;;;8.90;99.90;;;;;;5021073;28;20042;-72
2022/09/30 03:54:15;;;;;;;22.90;15.95;;;8.90;99.90;;;;;;5031931;28;20026;-72
2022/09/30 03:56:41;;;;;;;21.15;14.77;;;8.80;99.90;;;;;;5033666;28;20425;-72
2022/09/30 03:59:26;;;;;;;28.10;20.23;;;8.90;99.90;;;;;;5032060;28;20152;-72
2022/09/30 04:01:53;;;;;;;30.17;20.60;;;8.90;99.90;;;;;;5027371;28;20017;-72
2022/09/30 04:04:19;;;;;;;24.50;16.42;;;8.90;99.90;;;;;;5032687;28;20084;-72
2022/09/30 04:06:45;;;;;;;24.77;16.08;;;8.80;99.90;;;;;;5027214;28;20025;-72
2022/09/30 04:09:11;;;;;;;22.17;16.63;;;8.80;99.90;;;;;;5024000;28;20026;-72
2022/09/30 04:11:37;;;;;;;34.28;22.15;;;8.80;99.90;;;;;;5032000;28;20161;-72
2022/09/30 04:14:02;;;;;;;28.35;20.00;;;8.80;99.90;;;;;;5026144;28;20105;-72
2022/09/30 04:16:29;;;;;;;29.35;20.40;;;8.80;99.90;;;;;;5030486;28;20076;-72
2022/09/30 04:18:55;;;;;;;26.27;16.05;;;8.80;99.90;;;;;;5025479;28;20037;-72
2022/09/30 04:21:22;;;;;;;19.73;13.32;;;8.80;99.90;;;;;;5029081;28;20543;-71
2022/09/30 04:23:48;;;;;;;23.33;14.52;;;8.80;99.90;;;;;;5026134;28;20397;-72
2022/09/30 04:26:14;;;;;;;22.83;15.25;;;8.80;99.90;;;;;;5027013;28;20124;-72
2022/09/30 04:28:40;;;;;;;26.10;18.88;;;8.80;99.90;;;;;;5023453;28;20027;-72
2022/09/30 04:31:07;;;;;;;33.75;22.58;;;8.80;99.90;;;;;;5017724;28;20056;-72
2022/09/30 04:33:33;;;;;;;28.30;19.35;;;8.70;99.90;;;;;;5030964;28;20013;-72
2022/09/30 04:35:59;;;;;;;30.05;21.90;;;8.70;99.90;;;;;;5024818;28;20083;-72
2022/09/30 04:38:26;;;;;;;30.15;21.52;;;8.80;99.90;;;;;;5028333;28;20509;-72
2022/09/30 04:40:55;;;;;;;32.75;24.40;;;8.70;99.90;;;;;;5026876;28;20025;-72
2022/09/30 04:43:22;;;;;;;38.20;27.45;;;8.60;99.90;;;;;;5028971;28;20108;-72
2022/09/30 04:45:49;;;;;;;33.40;24.73;;;8.70;99.90;;;;;;5028068;28;20029;-72
2022/09/30 04:48:15;;;;;;;33.97;23.90;;;8.70;99.90;;;;;;5027583;28;20026;-72
2022/09/30 04:50:41;;;;;;;35.30;23.40;;;8.70;99.90;;;;;;5031643;28;20049;-72
2022/09/30 04:53:08;;;;;;;28.13;21.88;;;8.70;99.90;;;;;;5019870;28;20022;-72
2022/09/30 04:55:33;;;;;;;33.08;23.17;;;8.70;99.90;;;;;;5026598;28;20183;-72
2022/09/30 04:57:59;;;;;;;35.40;24.77;;;8.60;99.90;;;;;;5029362;28;20533;-72
2022/09/30 05:00:25;;;;;;;33.47;24.08;;;8.60;99.90;;;;;;5020562;28;20412;-72
2022/09/30 05:02:51;;;;;;;34.35;23.67;;;8.60;99.90;;;;;;5032109;28;20024;-72
2022/09/30 05:05:17;;;;;;;34.90;25.25;;;8.60;99.90;;;;;;5026599;28;20034;-72
2022/09/30 05:07:43;;;;;;;34.10;24.08;;;8.60;99.90;;;;;;5030074;28;20057;-72
2022/09/30 05:10:10;;;;;;;38.63;26.25;;;8.60;99.90;;;;;;5018449;28;20477;-72
2022/09/30 05:12:36;;;;;;;35.85;24.67;;;8.60;99.90;;;;;;5031234;28;20029;-72
2022/09/30 05:15:03;;;;;;;29.63;22.92;;;8.60;99.90;;;;;;5024404;28;20034;-72
2022/09/30 05:17:30;;;;;;;39.15;25.50;;;8.60;99.90;;;;;;5031688;28;20021;-72
2022/09/30 05:19:56;;;;;;;31.98;23.60;;;8.60;99.90;;;;;;5029762;28;20398;-72
2022/09/30 05:22:23;;;;;;;32.33;23.58;;;8.60;99.90;;;;;;5025366;28;20017;-72
2022/09/30 05:24:52;;;;;;;34.30;24.77;;;8.60;99.90;;;;;;5032374;28;20112;-72
2022/09/30 05:27:18;;;;;;;36.03;24.58;;;8.60;99.90;;;;;;5034103;28;20486;-72
2022/09/30 05:29:44;;;;;;;33.92;23.92;;;8.60;99.90;;;;;;5026529;28;20022;-72
2022/09/30 05:32:10;;;;;;;36.65;24.83;;;8.60;99.90;;;;;;5021854;28;20021;-71
2022/09/30 05:34:37;;;;;;;32.30;22.67;;;8.60;99.90;;;;;;5033415;28;20120;-71
2022/09/30 05:37:04;;;;;;;31.88;23.60;;;8.50;99.90;;;;;;5028573;28;20113;-72
2022/09/30 05:39:30;;;;;;;29.60;21.35;;;8.50;99.90;;;;;;5023238;28;20486;-72
2022/09/30 05:41:58;;;;;;;31.00;22.38;;;8.50;99.90;;;;;;5031825;28;20079;-71
2022/09/30 05:44:24;;;;;;;33.33;20.75;;;8.50;99.90;;;;;;5031543;28;20112;-72
2022/09/30 05:46:50;;;;;;;31.90;23.33;;;8.50;99.90;;;;;;5030167;28;20113;-72
2022/09/30 05:49:16;;;;;;;39.50;22.98;;;8.50;99.90;;;;;;5028755;28;20033;-72
2022/09/30 05:51:41;;;;;;;34.70;22.45;;;8.50;99.90;;;;;;5022148;28;20026;-72
2022/09/30 05:54:09;;;;;;;39.97;26.77;;;8.50;99.90;;;;;;5030379;28;20022;-72
2022/09/30 05:56:34;;;;;;;34.72;24.65;;;8.40;99.90;;;;;;5035451;28;20017;-71
2022/09/30 05:59:00;;;;;;;29.73;22.15;;;8.50;99.90;;;;;;5020262;28;20041;-71
2022/09/30 06:01:26;;;;;;;37.53;22.83;;;8.50;99.90;;;;;;5033419;28;20029;-72
2022/09/30 06:03:51;;;;;;;32.40;21.77;;;8.50;99.90;;;;;;5034937;28;20037;-71
2022/09/30 06:06:20;;;;;;;33.55;25.15;;;8.50;99.90;;;;;;5035572;28;20017;-71
2022/09/30 06:08:45;;;;;;;32.38;23.00;;;8.50;99.90;;;;;;5034653;28;20484;-71
2022/09/30 06:11:14;;;;;;;40.17;25.40;;;8.50;99.90;;;;;;5035032;28;20053;-71
2022/09/30 06:13:41;;;;;;;36.45;24.92;;;8.50;99.90;;;;;;5033988;28;20477;-71
2022/09/30 06:16:08;;;;;;;40.58;26.88;;;8.50;99.90;;;;;;5030127;28;20359;-71
2022/09/30 06:18:34;;;;;;;39.65;26.80;;;8.50;99.90;;;;;;5033171;28;20489;-71
2022/09/30 06:21:02;;;;;;;42.00;27.67;;;8.50;99.90;;;;;;5034921;28;20025;-71
2022/09/30 06:23:29;;;;;;;46.13;29.55;;;8.60;99.90;;;;;;5034679;28;20393;-71
2022/09/30 06:25:56;;;;;;;44.97;28.58;;;8.60;99.90;;;;;;5034740;28;20120;-71
2022/09/30 06:28:22;;;;;;;50.75;30.55;;;8.70;99.90;;;;;;5023980;28;20508;-70
2022/09/30 06:30:48;;;;;;;48.03;28.95;;;8.70;99.90;;;;;;5034400;28;20525;-71
2022/09/30 06:33:14;;;;;;;102.38;40.38;;;8.70;99.90;;;;;;5034379;28;20061;-71
2022/09/30 06:35:41;;;;;;;176.27;47.65;;;8.80;99.90;;;;;;5034744;28;20501;-71
2022/09/30 06:38:10;;;;;;;73.80;33.78;;;8.70;99.90;;;;;;5016948;28;20029;-71
2022/09/30 06:40:37;;;;;;;115.85;41.47;;;8.80;99.90;;;;;;5025044;28;20026;-71
2022/09/30 06:43:03;;;;;;;77.18;37.72;;;8.70;99.90;;;;;;5034893;28;20064;-71
2022/09/30 06:45:31;;;;;;;102.88;41.58;;;8.80;99.90;;;;;;5033557;28;20393;-70
2022/09/30 06:47:58;;;;;;;103.57;42.00;;;8.70;99.90;;;;;;5033954;28;20021;-71
2022/09/30 06:50:24;;;;;;;67.95;40.10;;;8.60;99.90;;;;;;5034606;28;20075;-71
2022/09/30 06:52:50;;;;;;;69.72;38.50;;;8.70;99.90;;;;;;5034290;28;20026;-71
2022/09/30 06:55:17;;;;;;;66.22;39.40;;;8.70;99.90;;;;;;5032792;28;20036;-71
2022/09/30 06:57:45;;;;;;;70.28;39.90;;;8.80;99.90;;;;;;5033760;28;20064;-71
2022/09/30 07:00:11;;;;;;;70.65;39.55;;;8.90;99.90;;;;;;5032290;28;20025;-71
2022/09/30 07:02:38;;;;;;;131.38;49.15;;;8.90;99.90;;;;;;5033751;28;20371;-71
2022/09/30 07:05:04;;;;;;;104.10;45.25;;;9.00;99.90;;;;;;5034072;28;20032;-71
2022/09/30 07:07:33;;;;;;;79.47;44.30;;;9.00;99.90;;;;;;5031143;28;20390;-71
2022/09/30 07:09:59;;;;;;;80.90;44.47;;;9.10;99.90;;;;;;5032371;28;20026;-71
2022/09/30 07:12:25;;;;;;;90.03;46.97;;;9.10;99.90;;;;;;5034324;28;20462;-71
2022/09/30 07:14:51;;;;;;;73.50;43.00;;;9.20;99.90;;;;;;5034619;28;20454;-71
2022/09/30 07:17:17;;;;;;;72.50;43.97;;;9.20;99.90;;;;;;5034538;28;20072;-71
2022/09/30 07:19:43;;;;;;;83.13;48.08;;;9.30;99.90;;;;;;5033628;28;20029;-70
2022/09/30 07:22:28;;;;;;;126.07;56.10;;;9.40;99.90;;;;;;5032440;28;20534;-71
2022/09/30 07:24:58;;;;;;;93.88;49.40;;;9.40;99.90;;;;;;5033746;28;20049;-71
2022/09/30 07:27:26;;;;;;;109.43;52.35;;;9.40;99.90;;;;;;5033403;28;20450;-71
2022/09/30 07:29:52;;;;;;;89.68;47.53;;;9.30;99.90;;;;;;5030532;28;20032;-71
2022/09/30 07:32:20;;;;;;;83.35;46.63;;;9.40;99.90;;;;;;5027731;28;20389;-71
2022/09/30 07:34:46;;;;;;;94.88;52.03;;;9.50;99.90;;;;;;5032903;28;20021;-71
2022/09/30 07:37:14;;;;;;;80.57;48.38;;;9.50;99.90;;;;;;5032996;28;20109;-71
2022/09/30 07:39:41;;;;;;;90.30;48.28;;;9.50;99.90;;;;;;5030498;28;20033;-71
2022/09/30 07:42:07;;;;;;;90.38;48.35;;;9.60;99.90;;;;;;5032436;28;20025;-71
2022/09/30 07:44:33;;;;;;;105.38;53.45;;;9.60;99.90;;;;;;5033268;28;20390;-71
2022/09/30 07:47:00;;;;;;;98.97;55.05;;;9.70;99.90;;;;;;5030493;28;20025;-71
2022/09/30 07:49:26;;;;;;;109.47;55.25;;;9.60;99.90;;;;;;5031191;28;20141;-71
2022/09/30 07:51:57;;;;;;;111.40;58.17;;;9.70;99.90;;;;;;5032801;28;20529;-71
2022/09/30 07:54:27;;;;;;;110.40;61.30;;;9.80;99.90;;;;;;5031051;28;20112;-71
2022/09/30 07:56:53;;;;;;;122.07;66.95;;;9.90;99.90;;;;;;5033057;28;20025;-71
2022/09/30 07:59:19;;;;;;;111.40;60.75;;;10.00;99.90;;;;;;5030047;28;20029;-71
2022/09/30 08:01:45;;;;;;;110.10;60.90;;;10.10;99.90;;;;;;5031847;28;20474;-71
2022/09/30 08:04:12;;;;;;;115.60;61.97;;;10.20;99.90;;;;;;5032117;28;20029;-71
2022/09/30 08:06:44;;;;;;;98.68;55.38;;;10.30;99.90;;;;;;5026505;28;20017;-71
2022/09/30 08:09:10;;;;;;;108.22;59.17;;;10.40;99.90;;;;;;5013695;28;20033;-71
2022/09/30 08:11:37;;;;;;;102.60;57.88;;;10.50;99.90;;;;;;5032625;28;20033;-71
2022/09/30 08:14:04;;;;;;;112.47;60.85;;;10.60;99.90;;;;;;5031609;28;20052;-71
2022/09/30 08:16:30;;;;;;;96.13;54.97;;;10.60;99.90;;;;;;5032480;28;20033;-71
2022/09/30 08:18:58;;;;;;;106.07;61.72;;;10.70;99.90;;;;;;5032757;28;20029;-71
2022/09/30 08:21:24;;;;;;;117.47;63.28;;;10.80;99.90;;;;;;5032623;28;20029;-71
2022/09/30 08:23:49;;;;;;;111.50;62.75;;;11.00;99.90;;;;;;5032401;28;20021;-71
2022/09/30 08:26:16;;;;;;;114.13;62.78;;;11.10;99.90;;;;;;5032861;28;20044;-71
2022/09/30 08:28:45;;;;;;;106.20;62.22;;;11.20;99.90;;;;;;5031828;28;20021;-71
2022/09/30 08:31:12;;;;;;;104.38;57.70;;;11.20;99.90;;;;;;5031875;28;20056;-71
2022/09/30 08:33:38;;;;;;;105.45;58.42;;;11.30;99.90;;;;;;5031631;28;20030;-71
2022/09/30 08:36:10;;;;;;;111.35;63.17;;;11.40;99.90;;;;;;5032296;28;20013;-71
2022/09/30 08:38:36;;;;;;;101.45;53.60;;;11.50;99.90;;;;;;5030619;28;20095;-72
2022/09/30 08:41:37;;;;;;;92.47;53.22;;;11.60;99.90;;;;;;5031460;28;20028;-71
2022/09/30 08:44:42;;;;;;;88.13;50.22;;;11.70;99.90;;;;;;5031033;28;20095;-71
2022/09/30 08:47:14;;;;;;;68.13;42.20;;;11.80;99.90;;;;;;5013144;28;20026;-72
2022/09/30 08:49:52;;;;;;;81.85;49.38;;;11.90;99.90;;;;;;5013067;28;20026;-72
2022/09/30 08:52:25;;;;;;;58.40;35.58;;;12.00;99.90;;;;;;5023778;28;20036;-71
2022/09/30 08:54:54;;;;;;;58.38;36.47;;;12.10;99.90;;;;;;5032198;28;20009;-72
2022/09/30 08:57:20;;;;;;;54.45;34.22;;;12.10;99.90;;;;;;5031384;28;20032;-72
2022/09/30 08:59:53;;;;;;;46.03;30.63;;;12.20;99.90;;;;;;5032280;28;20029;-72
2022/09/30 09:02:42;;;;;;;41.72;26.67;;;12.30;99.90;;;;;;5029722;28;20022;-72
2022/09/30 09:05:23;;;;;;;40.95;26.67;;;12.40;99.90;;;;;;5032417;28;20110;-72
2022/09/30 09:08:10;;;;;;;41.60;27.55;;;12.50;99.90;;;;;;5033141;28;20056;-72
2022/09/30 09:10:45;;;;;;;42.95;26.98;;;12.60;99.90;;;;;;5030518;28;20092;-72
2022/09/30 09:13:59;;;;;;;42.63;25.90;;;12.70;99.90;;;;;;5022982;28;20025;-73
2022/09/30 09:16:41;;;;;;;33.53;22.95;;;12.80;99.90;;;;;;5027428;28;20526;-72
2022/09/30 09:19:35;;;;;;;30.10;18.75;;;13.00;99.90;;;;;;5013937;28;20044;-73
2022/09/30 09:22:01;;;;;;;30.15;18.67;;;13.10;99.90;;;;;;5012539;28;20022;-73
2022/09/30 09:24:30;;;;;;;27.58;18.45;;;13.30;99.90;;;;;;5012460;28;20034;-73
2022/09/30 09:26:57;;;;;;;24.92;17.30;;;13.50;99.90;;;;;;5012328;28;20029;-73
2022/09/30 09:29:45;;;;;;;22.48;14.98;;;13.60;99.90;;;;;;5021632;28;20021;-73
2022/09/30 09:32:14;;;;;;;20.77;14.15;;;13.70;99.90;;;;;;5032379;28;20091;-72
2022/09/30 09:34:40;;;;;;;22.58;14.75;;;13.80;99.90;;;;;;5032426;28;20021;-73
2022/09/30 09:40:56;;;;;;;19.35;11.70;;;14.10;99.90;;;;;;5029054;28;20043;-73
2022/09/30 09:43:47;;;;;;;15.82;12.05;;;14.30;99.90;;;;;;5011422;28;20041;-73
2022/09/30 09:46:38;;;;;;;15.25;10.48;;;14.50;99.90;;;;;;5005470;28;20688;-73
2022/09/30 09:49:19;;;;;;;16.75;8.73;;;14.70;99.90;;;;;;5023030;28;20033;-73
2022/09/30 09:52:11;;;;;;;11.98;8.68;;;14.90;99.90;;;;;;5037627;28;20055;-73
2022/09/30 09:54:42;;;;;;;10.52;8.20;;;15.00;99.90;;;;;;5045745;28;20436;-74
2022/09/30 09:57:09;;;;;;;9.73;6.78;;;15.20;99.90;;;;;;5031537;28;20025;-73
2022/09/30 09:59:36;;;;;;;9.98;7.30;;;15.30;99.90;;;;;;5044332;28;20034;-73
2022/09/30 10:02:02;;;;;;;8.18;5.70;;;15.40;99.90;;;;;;5039896;28;20023;-73
2022/09/30 10:04:31;;;;;;;7.60;5.95;;;15.50;99.90;;;;;;5037598;28;20108;-74
2022/09/30 10:07:11;;;;;;;8.73;6.57;;;15.50;99.90;;;;;;5042398;28;20105;-74
2022/09/30 10:09:41;;;;;;;7.57;6.50;;;15.60;99.90;;;;;;5047676;28;20026;-73
2022/09/30 10:12:07;;;;;;;6.70;5.88;;;15.60;99.90;;;;;;5032953;28;20026;-73
2022/09/30 10:14:45;;;;;;;9.02;5.38;;;15.70;99.90;;;;;;5039014;28;20045;-74
2022/09/30 10:17:32;;;;;;;4.65;4.25;;;15.80;99.90;;;;;;5033770;28;20385;-73
2022/09/30 10:20:06;;;;;;;8.55;4.47;;;15.80;99.90;;;;;;5041025;28;20037;-74
2022/09/30 10:22:33;;;;;;;6.00;4.30;;;16.00;99.90;;;;;;5040775;28;20462;-74
2022/09/30 10:25:16;;;;;;;4.60;3.78;;;16.30;99.90;;;;;;5050606;28;20025;-74
2022/09/30 10:28:03;;;;;;;5.15;3.42;;;16.40;99.90;;;;;;5032057;28;20067;-74
2022/09/30 10:30:31;;;;;;;4.07;3.08;;;16.50;99.90;;;;;;5047060;28;20029;-73
2022/09/30 10:32:57;;;;;;;4.35;3.20;;;16.70;99.90;;;;;;5037347;28;20016;-73
2022/09/30 10:35:23;;;;;;;5.05;3.15;;;16.70;99.90;;;;;;5045145;28;20078;-74
2022/09/30 10:37:53;;;;;;;3.60;3.30;;;16.90;99.90;;;;;;5045488;28;20025;-73
2022/09/30 10:40:26;;;;;;;4.80;3.33;;;17.10;99.90;;;;;;5045035;28;20504;-73
2022/09/30 10:42:52;;;;;;;5.75;2.90;;;17.30;99.90;;;;;;5046868;28;20025;-73
2022/09/30 10:45:23;;;;;;;3.85;3.15;;;17.40;99.90;;;;;;5035149;28;20025;-73
2022/09/30 10:47:52;;;;;;;4.93;3.35;;;17.20;99.90;;;;;;5041216;28;20050;-73
2022/09/30 10:50:25;;;;;;;4.97;2.88;;;17.00;99.90;;;;;;5038342;28;20026;-73
2022/09/30 10:53:14;;;;;;;5.53;3.50;;;17.20;99.90;;;;;;5036087;28;20033;-73
2022/09/30 10:55:42;;;;;;;4.30;3.20;;;17.30;99.90;;;;;;5036396;28;20028;-73
2022/09/30 10:58:39;;;;;;;6.50;2.85;;;17.50;99.90;;;;;;5042701;28;20037;-73
2022/09/30 11:01:33;;;;;;;3.45;2.20;;;17.50;99.90;;;;;;5049078;28;20485;-73
2022/09/30 11:04:04;;;;;;;3.75;2.30;;;17.60;99.90;;;;;;5032314;28;20033;-73
2022/09/30 11:06:32;;;;;;;2.80;2.08;;;17.50;99.90;;;;;;5038330;28;20071;-71
2022/09/30 11:09:02;;;;;;;3.60;2.30;;;17.50;99.90;;;;;;5049808;28;20504;-71
2022/09/30 11:11:37;;;;;;;3.78;2.80;;;17.50;99.90;;;;;;5038437;28;20083;-71
2022/09/30 11:14:24;;;;;;;3.70;2.30;;;17.50;99.90;;;;;;5040689;28;20041;-72
2022/09/30 11:16:55;;;;;;;5.03;2.38;;;17.40;99.90;;;;;;5020259;28;20028;-71
2022/09/30 11:19:28;;;;;;;4.18;2.28;;;17.50;99.90;;;;;;5025438;28;20136;-71
2022/09/30 11:22:12;;;;;;;3.00;2.65;;;17.60;99.90;;;;;;5027764;28;20619;-71
2022/09/30 11:24:42;;;;;;;4.25;2.35;;;17.70;99.90;;;;;;5022097;28;20065;-73
2022/09/30 11:27:29;;;;;;;2.90;2.28;;;17.90;99.90;;;;;;5021932;28;20030;-74
2022/09/30 11:30:07;;;;;;;3.60;2.50;;;17.90;99.90;;;;;;5025313;28;20029;-73
2022/09/30 11:33:10;;;;;;;3.22;2.50;;;18.00;99.90;;;;;;5018410;28;20026;-74
2022/09/30 11:35:53;;;;;;;3.15;2.03;;;17.80;99.90;;;;;;5024150;28;20037;-73
2022/09/30 11:38:36;;;;;;;;;;;17.80;99.90;;;;;;5033523;28;20065;-87
2022/09/30 11:41:28;;;;;;;4.72;2.10;;;17.90;99.90;;;;;;5036957;28;19913;-74
2022/09/30 11:44:34;;;;;;;2.88;2.20;;;17.90;99.90;;;;;;5033879;28;20044;-74
2022/09/30 11:47:24;;;;;;;3.10;2.58;;;18.00;99.90;;;;;;5026927;28;20030;-73
2022/09/30 11:50:04;;;;;;;6.22;2.80;;;18.10;99.90;;;;;;5029783;28;20029;-73
2022/09/30 11:52:39;;;;;;;4.65;2.58;;;18.20;99.90;;;;;;5028816;28;20075;-72
2022/09/30 11:55:45;;;;;;;4.88;3.50;;;18.30;99.90;;;;;;5035872;28;20037;-72
2022/09/30 11:58:21;;;;;;;6.97;3.28;;;18.10;99.90;;;;;;5028293;28;20038;-73
2022/09/30 12:00:57;;;;;;;6.43;3.72;;;18.10;99.90;;;;;;5033101;28;20041;-72
2022/09/30 12:03:28;;;;;;;6.22;3.55;;;18.00;99.90;;;;;;5031896;28;20543;-73
2022/09/30 12:06:00;;;;;;;7.72;3.35;;;17.90;99.90;;;;;;5024018;28;20026;-72
2022/09/30 12:08:50;;;;;;;4.82;2.95;;;17.60;99.90;;;;;;5027144;28;20037;-73
2022/09/30 12:11:30;;;;;;;5.78;2.63;;;17.60;99.90;;;;;;5024252;28;20026;-73
2022/09/30 12:14:02;;;;;;;3.35;2.67;;;17.80;99.90;;;;;;5022079;28;20392;-73
2022/09/30 12:16:30;;;;;;;5.68;2.65;;;18.00;99.90;;;;;;5025281;28;20402;-73
2022/09/30 12:19:03;;;;;;;8.43;2.47;;;18.20;99.90;;;;;;5018370;28;20505;-73
2022/09/30 12:21:38;;;;;;;3.85;2.53;;;18.10;99.90;;;;;;5025429;28;20553;-73
2022/09/30 12:24:10;;;;;;;2.75;1.95;;;17.90;99.90;;;;;;5025967;28;20048;-73
2022/09/30 12:26:36;;;;;;;3.53;2.33;;;17.70;99.90;;;;;;5034378;28;20026;-73
2022/09/30 12:32:21;;;;;;;3.97;1.77;;;17.80;99.90;;;;;;5030150;28;20076;-72
2022/09/30 12:35:08;;;;;;;4.53;2.25;;;17.80;99.90;;;;;;5032632;28;20040;-71
2022/09/30 12:38:11;;;;;;;3.47;1.80;;;17.70;99.90;;;;;;5024898;28;20025;-72
2022/09/30 12:41:17;;;;;;;1.90;1.45;;;17.60;99.90;;;;;;5034692;28;20029;-72
2022/09/30 12:44:04;;;;;;;3.80;1.35;;;17.60;99.90;;;;;;5026061;28;20145;-72
2022/09/30 12:47:24;;;;;;;2.00;1.20;;;17.50;99.90;;;;;;5029174;28;20034;-72
2022/09/30 12:49:54;;;;;;;1.77;1.20;;;17.50;99.90;;;;;;5018130;28;20581;-72
2022/09/30 12:52:21;;;;;;;3.03;1.17;;;17.60;99.90;;;;;;5028736;28;20048;-72
2022/09/30 12:55:00;;;;;;;1.75;1.30;;;17.60;99.90;;;;;;5026488;28;20028;-72
2022/09/30 12:57:33;;;;;;;2.10;1.33;;;17.50;99.90;;;;;;5027505;28;20022;-72
2022/09/30 13:00:13;;;;;;;1.85;1.02;;;17.30;99.90;;;;;;5027013;28;20494;-72
2022/09/30 13:02:42;;;;;;;1.80;1.17;;;17.20;99.90;;;;;;5021620;28;20026;-72
2022/09/30 13:05:26;;;;;;;2.55;1.25;;;17.20;99.90;;;;;;5029659;28;20030;-72
2022/09/30 13:08:04;;;;;;;2.40;1.00;;;17.40;99.90;;;;;;5031146;28;20105;-72
2022/09/30 13:10:32;;;;;;;1.95;1.00;;;17.50;99.90;;;;;;5027160;28;20665;-71
2022/09/30 13:13:27;;;;;;;2.25;1.17;;;17.70;99.90;;;;;;5025774;28;20029;-72